Terminal Aerodrome Forecast
Issued by NWS

Home | Current Version | Previous Version | Text Only | Print | Product List | Glossary On
Versions: 1 2 3 4 5 6 7 8 9 10 11 12 13 14 15 16 17 18 19
000
FTUS41 KBGM 300800 AAA
TAFRME
TAF AMD
KRME 300857Z 3009/3106 14010KT 4SM -SHSN OVC015
     FM301000 29010G20KT 5SM -SHSN BR OVC015
      TEMPO 3011/3014 2SM -SHSN
     FM301500 30015G25KT 5SM -SHSN OVC015
     FM310000 30012G20KT P6SM SCT025=

USA.gov is the U.S. government's official web portal to all federal, state and local government web resources and services.